createdAt,value
2023-11-17T00:00:59.930Z,5.30
2023-11-17T00:01:59.927Z,5.60
2023-11-17T00:03:00.086Z,6.20
2023-11-17T00:03:59.969Z,5.70
2023-11-17T00:04:59.888Z,5.80
2023-11-17T00:05:59.788Z,5.70
2023-11-17T00:06:59.799Z,5.90
2023-11-17T00:07:59.733Z,5.40
2023-11-17T00:08:59.705Z,5.90
2023-11-17T00:09:59.694Z,6.20
2023-11-17T00:10:59.650Z,5.90
2023-11-17T00:11:59.650Z,5.60
2023-11-17T00:12:59.611Z,6.40
2023-11-17T00:13:59.563Z,6.00
2023-11-17T00:14:59.540Z,6.30
2023-11-17T00:15:59.588Z,5.80
2023-11-17T00:16:59.576Z,5.70
2023-11-17T00:17:59.505Z,5.20
2023-11-17T00:18:59.477Z,6.00
2023-11-17T00:19:59.421Z,6.10
2023-11-17T00:20:59.380Z,5.70
2023-11-17T00:21:59.390Z,5.70
2023-11-17T00:22:59.320Z,5.40
2023-11-17T00:23:59.297Z,5.50
2023-11-17T00:24:59.287Z,5.80
2023-11-17T00:25:59.237Z,5.90
2023-11-17T00:26:59.223Z,5.70
2023-11-17T00:27:59.242Z,5.80
2023-11-17T00:28:59.157Z,6.00
2023-11-17T00:29:59.134Z,5.30
2023-11-17T00:30:59.163Z,5.30
2023-11-17T00:31:59.085Z,6.40
2023-11-17T00:32:59.106Z,5.40
2023-11-17T00:33:59.170Z,5.70
2023-11-17T00:34:59.116Z,5.90
2023-11-17T00:35:58.969Z,6.10
2023-11-17T00:36:59.041Z,5.80
2023-11-17T00:37:58.924Z,5.70
2023-11-17T00:38:58.885Z,5.60
2023-11-17T00:39:58.890Z,6.00
2023-11-17T00:40:58.827Z,5.60
2023-11-17T00:41:58.812Z,5.20
2023-11-17T00:42:58.844Z,6.00
2023-11-17T00:43:58.920Z,5.80
2023-11-17T00:44:58.722Z,5.70
2023-11-17T00:45:58.880Z,5.70
2023-11-17T00:46:58.818Z,6.20
2023-11-17T00:47:58.701Z,5.80
2023-11-17T00:48:58.662Z,5.90
2023-11-17T00:49:58.589Z,5.80
2023-11-17T00:50:58.556Z,6.00
2023-11-17T00:51:58.565Z,5.60
2023-11-17T00:52:58.503Z,6.10
2023-11-17T00:53:58.482Z,5.80
2023-11-17T00:54:58.457Z,5.70
2023-11-17T00:55:58.420Z,5.80
2023-11-17T00:56:58.398Z,5.90
2023-11-17T00:57:58.385Z,5.90
2023-11-17T00:58:58.342Z,5.90
2023-11-17T00:59:58.332Z,6.30
2023-11-17T01:00:58.324Z,6.00
2023-11-17T01:01:58.282Z,5.70
2023-11-17T01:02:58.264Z,5.90
2023-11-17T01:03:58.237Z,5.40
2023-11-17T01:04:58.176Z,6.20
2023-11-17T01:05:58.150Z,5.50
2023-11-17T01:06:58.153Z,5.50
2023-11-17T01:07:58.105Z,5.80
2023-11-17T01:08:58.091Z,6.00
2023-11-17T01:09:58.083Z,5.80
2023-11-17T01:10:58.015Z,6.00
2023-11-17T01:11:57.983Z,5.80
2023-11-17T01:12:58.094Z,6.80
2023-11-17T01:13:57.937Z,6.10
2023-11-17T01:14:57.901Z,5.80
2023-11-17T01:15:57.927Z,5.80
2023-11-17T01:16:57.881Z,6.10
2023-11-17T01:17:57.834Z,5.70
2023-11-17T01:18:57.797Z,5.80
2023-11-17T01:19:57.766Z,6.20
2023-11-17T01:20:57.753Z,5.80
2023-11-17T01:21:57.729Z,5.40
2023-11-17T01:22:57.684Z,6.20
2023-11-17T01:23:57.658Z,5.70
2023-11-17T01:24:57.664Z,5.20
2023-11-17T01:25:57.607Z,5.70
2023-11-17T01:26:57.578Z,6.20
2023-11-17T01:27:57.582Z,6.20
2023-11-17T01:28:57.520Z,5.80
2023-11-17T01:29:57.492Z,6.00
2023-11-17T01:30:57.489Z,5.60
2023-11-17T01:31:57.457Z,6.40
2023-11-17T01:32:57.465Z,5.50
2023-11-17T01:33:57.407Z,5.80
2023-11-17T01:34:57.367Z,5.80
2023-11-17T01:35:57.330Z,5.60
2023-11-17T01:36:57.333Z,5.80
2023-11-17T01:37:57.274Z,5.90
2023-11-17T01:38:57.249Z,6.50
2023-11-17T01:39:57.293Z,6.70
2023-11-17T01:40:57.191Z,5.90
2023-11-17T01:41:57.164Z,6.20
2023-11-17T01:42:57.172Z,6.20
2023-11-17T01:43:57.108Z,5.90
2023-11-17T01:44:57.085Z,6.70
2023-11-17T01:45:57.132Z,5.70
2023-11-17T01:46:57.196Z,6.20
2023-11-17T01:47:57.051Z,5.70
2023-11-17T01:48:57.005Z,6.60
2023-11-17T01:49:56.947Z,6.00
2023-11-17T01:50:56.926Z,5.90
2023-11-17T01:51:56.901Z,5.90
2023-11-17T01:52:56.901Z,5.90
2023-11-17T01:53:56.838Z,5.80
2023-11-17T01:54:56.826Z,5.80
2023-11-17T01:55:56.786Z,6.00
2023-11-17T01:56:56.760Z,5.80
2023-11-17T01:57:56.757Z,5.80
2023-11-17T01:58:56.768Z,5.90
2023-11-17T01:59:56.666Z,6.00
2023-11-17T02:00:56.686Z,5.50
2023-11-17T02:01:56.646Z,6.00
2023-11-17T02:02:56.714Z,5.80
2023-11-17T02:03:56.705Z,5.90
2023-11-17T02:04:56.550Z,5.80
2023-11-17T02:05:56.503Z,6.30
2023-11-17T02:06:56.515Z,6.10
2023-11-17T02:07:56.459Z,6.10
2023-11-17T02:08:56.429Z,6.20
2023-11-17T02:09:56.453Z,6.40
2023-11-17T02:10:56.526Z,6.10
2023-11-17T02:11:56.341Z,5.60
2023-11-17T02:12:56.320Z,6.10
2023-11-17T02:13:56.318Z,5.70
2023-11-17T02:14:56.262Z,5.70
2023-11-17T02:15:56.260Z,6.30
2023-11-17T02:16:56.245Z,6.20
2023-11-17T02:17:56.270Z,5.80
2023-11-17T02:18:56.207Z,5.80
2023-11-17T02:19:56.144Z,5.70
2023-11-17T02:20:56.098Z,5.40
2023-11-17T02:21:56.154Z,6.00
2023-11-17T02:22:56.048Z,5.90
2023-11-17T02:23:56.022Z,5.80
2023-11-17T02:24:56.027Z,5.60
2023-11-17T02:25:55.955Z,6.00
2023-11-17T02:26:55.951Z,5.70
2023-11-17T02:27:55.933Z,5.70
2023-11-17T02:28:55.876Z,5.50
2023-11-17T02:29:55.845Z,5.50
2023-11-17T02:30:55.934Z,5.50
2023-11-17T02:31:55.850Z,5.40
2023-11-17T02:32:55.818Z,5.30
2023-11-17T02:33:55.756Z,4.90
2023-11-17T02:34:55.709Z,5.60
2023-11-17T02:35:55.703Z,4.90
2023-11-17T02:36:55.752Z,5.70
2023-11-17T02:37:55.627Z,4.80
2023-11-17T02:38:55.603Z,5.60
2023-11-17T02:39:55.674Z,5.60
2023-11-17T02:40:55.550Z,5.40
2023-11-17T02:41:55.517Z,5.70
2023-11-17T02:42:55.508Z,5.40
2023-11-17T02:43:55.476Z,5.60
2023-11-17T02:44:55.431Z,5.80
2023-11-17T02:45:55.480Z,6.10
2023-11-17T02:46:55.408Z,5.80
2023-11-17T02:47:56.625Z,6.00
2023-11-17T02:48:55.337Z,5.60
2023-11-17T02:49:55.298Z,5.80
2023-11-17T02:50:55.271Z,5.80
2023-11-17T02:51:55.339Z,6.80
2023-11-17T02:52:55.221Z,5.80
2023-11-17T02:53:55.185Z,6.30
2023-11-17T02:54:55.208Z,6.00
2023-11-17T02:55:55.130Z,6.00
2023-11-17T02:56:55.106Z,5.30
2023-11-17T02:57:55.102Z,5.20
2023-11-17T02:58:55.060Z,5.80
2023-11-17T02:59:55.020Z,5.40
2023-11-17T03:00:55.013Z,5.70
2023-11-17T03:01:54.999Z,5.90
2023-11-17T03:02:55.020Z,6.30
2023-11-17T03:03:55.079Z,5.20
2023-11-17T03:04:54.885Z,5.60
2023-11-17T03:05:54.857Z,5.20
2023-11-17T03:06:54.865Z,5.80
2023-11-17T03:07:54.819Z,5.90
2023-11-17T03:08:54.782Z,5.70
2023-11-17T03:09:54.794Z,5.50
2023-11-17T03:10:54.729Z,6.00
2023-11-17T03:11:54.696Z,5.70
2023-11-17T03:12:54.713Z,5.60
2023-11-17T03:13:54.633Z,5.80
2023-11-17T03:14:54.820Z,6.00
2023-11-17T03:15:54.594Z,6.40
2023-11-17T03:16:54.590Z,6.20
2023-11-17T03:17:54.540Z,6.00
2023-11-17T03:18:54.520Z,5.90
2023-11-17T03:19:54.469Z,6.40
2023-11-17T03:20:54.447Z,5.90
2023-11-17T03:21:54.474Z,5.80
2023-11-17T03:22:54.396Z,6.30
2023-11-17T03:23:54.385Z,5.70
2023-11-17T03:24:54.350Z,5.50
2023-11-17T03:25:54.449Z,6.10
2023-11-17T03:26:54.286Z,6.10
2023-11-17T03:27:54.301Z,6.20
2023-11-17T03:28:54.219Z,5.90
2023-11-17T03:29:54.193Z,5.60
2023-11-17T03:30:54.192Z,6.20
2023-11-17T03:31:55.169Z,6.00
2023-11-17T03:32:54.376Z,5.10
2023-11-17T03:33:54.112Z,5.00
2023-11-17T03:34:54.058Z,5.00
2023-11-17T03:35:54.026Z,4.60
2023-11-17T03:36:54.010Z,4.90
2023-11-17T03:37:53.974Z,4.90
2023-11-17T03:38:53.950Z,5.70
2023-11-17T03:39:53.952Z,4.90
2023-11-17T03:40:53.898Z,5.60
2023-11-17T03:41:53.900Z,5.60
2023-11-17T03:42:53.901Z,5.60
2023-11-17T03:43:53.810Z,5.70
2023-11-17T03:44:53.790Z,5.50
2023-11-17T03:45:53.768Z,5.70
2023-11-17T03:46:53.810Z,6.10
2023-11-17T03:47:53.733Z,5.30
2023-11-17T03:48:53.742Z,5.80
2023-11-17T03:49:53.641Z,5.60
2023-11-17T03:50:53.616Z,5.50
2023-11-17T03:51:53.622Z,5.60
2023-11-17T03:52:55.062Z,5.40
2023-11-17T03:53:53.528Z,5.30
2023-11-17T03:54:53.530Z,6.20
2023-11-17T03:55:53.502Z,5.60
2023-11-17T03:56:53.469Z,5.40
2023-11-17T03:57:53.449Z,5.80
2023-11-17T03:58:53.398Z,5.90
2023-11-17T03:59:53.365Z,6.20
2023-11-17T04:00:53.388Z,5.60
2023-11-17T04:01:53.514Z,5.40
2023-11-17T04:02:53.433Z,5.80
2023-11-17T04:03:53.292Z,6.30
2023-11-17T04:04:53.233Z,5.80
2023-11-17T04:05:53.199Z,5.70
2023-11-17T04:06:53.215Z,5.40
2023-11-17T04:07:53.143Z,5.00
2023-11-17T04:08:53.117Z,5.40
2023-11-17T04:09:53.120Z,5.80
2023-11-17T04:10:53.073Z,5.30
2023-11-17T04:11:53.115Z,5.30
2023-11-17T04:12:53.020Z,5.40
2023-11-17T04:13:52.992Z,5.80
2023-11-17T04:14:52.951Z,5.70
2023-11-17T04:15:52.994Z,5.60
2023-11-17T04:16:53.080Z,5.40
2023-11-17T04:17:52.889Z,5.90
2023-11-17T04:18:52.883Z,6.00
2023-11-17T04:19:52.813Z,6.60
2023-11-17T04:20:52.787Z,6.30
2023-11-17T04:21:52.819Z,6.50
2023-11-17T04:22:52.737Z,5.70
2023-11-17T04:23:52.699Z,6.10
2023-11-17T04:24:52.703Z,5.80
2023-11-17T04:25:52.660Z,5.50
2023-11-17T04:26:52.618Z,5.80
2023-11-17T04:27:52.639Z,6.00
2023-11-17T04:28:52.564Z,5.80
2023-11-17T04:29:52.530Z,5.60
2023-11-17T04:30:52.612Z,5.60
2023-11-17T04:31:52.474Z,5.60
2023-11-17T04:32:52.548Z,5.70
2023-11-17T04:33:52.449Z,5.90
2023-11-17T04:34:52.402Z,5.50
2023-11-17T04:35:52.367Z,5.10
2023-11-17T04:36:52.399Z,6.10
2023-11-17T04:37:52.308Z,5.10
2023-11-17T04:38:52.287Z,5.90
2023-11-17T04:39:52.354Z,5.70
2023-11-17T04:40:52.228Z,5.50
2023-11-17T04:41:52.313Z,5.60
2023-11-17T04:42:52.235Z,6.40
2023-11-17T04:43:52.177Z,5.70
2023-11-17T04:44:52.117Z,5.70
2023-11-17T04:45:52.204Z,5.40
2023-11-17T04:46:52.115Z,5.60
2023-11-17T04:47:52.066Z,5.30
2023-11-17T04:48:52.091Z,6.00
2023-11-17T04:49:51.985Z,5.70
2023-11-17T04:50:51.952Z,5.60
2023-11-17T04:51:51.935Z,5.80
2023-11-17T04:52:51.904Z,5.70
2023-11-17T04:53:51.871Z,6.10
2023-11-17T04:54:51.870Z,5.30
2023-11-17T04:55:51.832Z,5.90
2023-11-17T04:56:51.782Z,5.70
2023-11-17T04:57:51.784Z,7.10
2023-11-17T04:58:51.734Z,5.70
2023-11-17T04:59:51.723Z,6.00
2023-11-17T05:00:51.722Z,5.90
2023-11-17T05:01:51.725Z,6.10
2023-11-17T05:02:51.644Z,6.30
2023-11-17T05:03:51.661Z,6.30
2023-11-17T05:04:51.594Z,6.00
2023-11-17T05:05:51.534Z,6.70
2023-11-17T05:06:51.537Z,6.30
2023-11-17T05:07:51.481Z,6.30
2023-11-17T05:08:51.464Z,6.80
2023-11-17T05:09:51.519Z,6.90
2023-11-17T05:10:51.430Z,6.50
2023-11-17T05:11:51.368Z,7.20
2023-11-17T05:12:51.360Z,7.00
2023-11-17T05:13:51.310Z,6.80
2023-11-17T05:14:51.333Z,7.20
2023-11-17T05:15:51.339Z,7.10
2023-11-17T05:16:51.350Z,7.80
2023-11-17T05:17:51.249Z,7.50
2023-11-17T05:18:51.220Z,7.30
2023-11-17T05:19:51.151Z,7.90
2023-11-17T05:20:51.118Z,7.80
2023-11-17T05:21:51.096Z,7.90
2023-11-17T05:22:51.061Z,7.00
2023-11-17T05:23:51.031Z,7.30
2023-11-17T05:24:51.036Z,7.50
2023-11-17T05:25:51.030Z,7.60
2023-11-17T05:26:50.952Z,7.40
2023-11-17T05:27:50.926Z,7.30
2023-11-17T05:28:50.893Z,7.10
2023-11-17T05:29:50.864Z,8.00
2023-11-17T05:30:50.887Z,8.30
2023-11-17T05:31:50.949Z,8.50
2023-11-17T05:32:50.838Z,6.90
2023-11-17T05:33:50.842Z,7.40
2023-11-17T05:34:50.727Z,7.00
2023-11-17T05:35:50.695Z,6.90
2023-11-17T05:36:50.734Z,7.80
2023-11-17T05:37:50.639Z,6.70
2023-11-17T05:38:50.633Z,8.00
2023-11-17T05:39:50.825Z,8.50
2023-11-17T05:40:50.555Z,9.40
2023-11-17T05:41:50.531Z,11.40
2023-11-17T05:42:50.520Z,10.20
2023-11-17T05:43:50.529Z,11.30
2023-11-17T05:44:50.449Z,11.80
2023-11-17T05:45:50.446Z,10.00
2023-11-17T05:46:50.495Z,10.30
2023-11-17T05:47:50.431Z,10.00
2023-11-17T05:48:50.332Z,11.50
2023-11-17T05:49:50.342Z,12.30
2023-11-17T05:50:50.281Z,12.20
2023-11-17T05:51:52.185Z,13.10
2023-11-17T05:52:50.219Z,13.20
2023-11-17T05:53:50.191Z,14.80
2023-11-17T05:54:50.167Z,12.30
2023-11-17T05:55:50.135Z,10.10
2023-11-17T05:56:50.117Z,10.80
2023-11-17T05:57:50.082Z,10.10
2023-11-17T05:58:50.074Z,11.10
2023-11-17T05:59:51.388Z,9.00
2023-11-17T06:00:49.998Z,8.70
2023-11-17T06:01:49.976Z,8.10
2023-11-17T06:02:50.052Z,8.50
2023-11-17T06:03:49.985Z,7.70
2023-11-17T06:04:50.037Z,7.50
2023-11-17T06:05:49.876Z,7.90
2023-11-17T06:06:49.832Z,7.20
2023-11-17T06:07:49.805Z,6.90
2023-11-17T06:08:49.779Z,7.60
2023-11-17T06:09:49.751Z,7.60
2023-11-17T06:10:49.723Z,7.70
2023-11-17T06:11:49.713Z,7.00
2023-11-17T06:12:49.659Z,6.90
2023-11-17T06:13:49.645Z,7.50
2023-11-17T06:14:49.610Z,7.20
2023-11-17T06:15:49.587Z,7.60
2023-11-17T06:16:49.645Z,7.80
2023-11-17T06:17:49.571Z,8.20
2023-11-17T06:18:49.502Z,7.80
2023-11-17T06:19:49.511Z,7.50
2023-11-17T06:20:49.438Z,8.50
2023-11-17T06:21:49.417Z,7.90
2023-11-17T06:22:49.378Z,7.90
2023-11-17T06:23:49.361Z,7.60
2023-11-17T06:24:49.327Z,8.40
2023-11-17T06:25:49.317Z,7.60
2023-11-17T06:26:49.277Z,7.70
2023-11-17T06:27:49.249Z,9.40
2023-11-17T06:28:49.221Z,11.60
2023-11-17T06:29:49.193Z,12.90
2023-11-17T06:30:49.161Z,11.70
2023-11-17T06:31:49.182Z,19.30
2023-11-17T06:32:49.124Z,16.60
2023-11-17T06:33:49.087Z,15.30
2023-11-17T06:34:49.049Z,12.80
2023-11-17T06:35:49.045Z,10.30
2023-11-17T06:36:48.994Z,11.70
2023-11-17T06:37:48.973Z,11.60
2023-11-17T06:38:48.941Z,16.20
2023-11-17T06:39:48.923Z,24.10
2023-11-17T06:40:48.895Z,27.80
2023-11-17T06:41:48.878Z,24.60
2023-11-17T06:42:48.854Z,17.40
2023-11-17T06:43:48.876Z,13.30
2023-11-17T06:44:48.771Z,16.70
2023-11-17T06:45:48.789Z,14.80
2023-11-17T06:46:48.843Z,15.70
2023-11-17T06:47:48.706Z,15.00
2023-11-17T06:48:48.673Z,15.30
2023-11-17T06:49:48.637Z,13.30
2023-11-17T06:50:48.605Z,12.30
2023-11-17T06:51:48.604Z,12.30
2023-11-17T06:52:48.552Z,9.80
2023-11-17T06:53:48.529Z,9.50
2023-11-17T06:54:48.492Z,9.60
2023-11-17T06:55:48.468Z,9.60
2023-11-17T06:56:48.436Z,9.30
2023-11-17T06:57:48.412Z,8.60
2023-11-17T06:58:48.385Z,8.90
2023-11-17T06:59:48.360Z,9.20
2023-11-17T07:00:48.336Z,9.10
2023-11-17T07:01:48.541Z,10.60
2023-11-17T07:02:48.335Z,10.10
2023-11-17T07:03:48.365Z,11.70
2023-11-17T07:04:48.245Z,10.80
2023-11-17T07:05:48.197Z,11.40
2023-11-17T07:06:48.160Z,10.10
2023-11-17T07:07:48.290Z,10.10
2023-11-17T07:08:48.107Z,10.30
2023-11-17T07:09:48.084Z,10.30
2023-11-17T07:10:48.051Z,10.90
2023-11-17T07:11:48.034Z,11.50
2023-11-17T07:12:47.989Z,11.00
2023-11-17T07:13:50.066Z,9.80
2023-11-17T07:14:47.996Z,9.20
2023-11-17T07:15:47.907Z,9.50
2023-11-17T07:16:47.901Z,9.10
2023-11-17T07:17:47.935Z,8.40
2023-11-17T07:18:47.825Z,9.00
2023-11-17T07:19:47.796Z,8.70
2023-11-17T07:20:47.775Z,8.60
2023-11-17T07:21:47.813Z,9.60
2023-11-17T07:22:47.742Z,9.50
2023-11-17T07:23:47.806Z,10.00
2023-11-17T07:24:47.655Z,9.60
2023-11-17T07:25:47.631Z,9.50
2023-11-17T07:26:47.633Z,9.20
2023-11-17T07:27:47.579Z,9.50
2023-11-17T07:28:47.572Z,10.00
2023-11-17T07:29:47.513Z,9.70
2023-11-17T07:30:47.512Z,9.10
2023-11-17T07:31:47.584Z,8.80
2023-11-17T07:32:47.475Z,8.50
2023-11-17T07:33:47.406Z,8.20
2023-11-17T07:34:47.376Z,8.30
2023-11-17T07:35:47.386Z,8.30
2023-11-17T07:36:47.330Z,8.50
2023-11-17T07:37:47.302Z,7.90
2023-11-17T07:38:47.269Z,7.70
2023-11-17T07:39:47.350Z,8.30
2023-11-17T07:40:47.313Z,7.70
2023-11-17T07:41:47.195Z,8.20
2023-11-17T07:42:47.158Z,7.80
2023-11-17T07:43:47.131Z,7.40
2023-11-17T07:44:47.099Z,8.00
2023-11-17T07:45:47.079Z,9.20
2023-11-17T07:46:47.160Z,9.50
2023-11-17T07:47:47.044Z,9.80
2023-11-17T07:48:53.947Z,9.70
2023-11-17T07:49:46.999Z,9.80
2023-11-17T07:50:46.934Z,9.80
2023-11-17T07:51:46.906Z,8.80
2023-11-17T07:52:46.884Z,9.10
2023-11-17T07:53:46.890Z,8.80
2023-11-17T07:54:46.828Z,8.70
2023-11-17T07:55:46.922Z,7.90
2023-11-17T07:56:46.884Z,8.30
2023-11-17T07:57:46.753Z,8.50
2023-11-17T07:58:46.711Z,8.80
2023-11-17T07:59:46.681Z,8.40
2023-11-17T08:00:46.665Z,7.80
2023-11-17T08:01:46.636Z,8.20
2023-11-17T08:02:46.766Z,8.60
2023-11-17T08:03:46.671Z,9.60
2023-11-17T08:04:46.710Z,9.10
2023-11-17T08:05:46.539Z,8.30
2023-11-17T08:06:46.495Z,8.90
2023-11-17T08:07:46.553Z,8.20
2023-11-17T08:08:46.431Z,9.20
2023-11-17T08:09:46.417Z,8.20
2023-11-17T08:10:46.373Z,9.00
2023-11-17T08:11:46.458Z,9.40
2023-11-17T08:12:46.326Z,8.50
2023-11-17T08:13:46.298Z,8.70
2023-11-17T08:14:46.260Z,9.10
2023-11-17T08:15:46.262Z,9.20
2023-11-17T08:16:46.268Z,8.70
2023-11-17T08:17:46.202Z,9.00
2023-11-17T08:18:46.162Z,9.00
2023-11-17T08:19:46.159Z,8.40
2023-11-17T08:20:46.090Z,9.70
2023-11-17T08:21:46.084Z,9.60
2023-11-17T08:22:46.065Z,9.60
2023-11-17T08:23:46.029Z,9.70
2023-11-17T08:24:45.997Z,8.90
2023-11-17T08:25:45.957Z,9.50
2023-11-17T08:26:45.939Z,8.90
2023-11-17T08:27:46.339Z,9.30
2023-11-17T08:28:45.870Z,9.60
2023-11-17T08:29:45.845Z,10.10
2023-11-17T08:30:50.538Z,9.40
2023-11-17T08:31:45.898Z,10.30
2023-11-17T08:32:45.765Z,9.50
2023-11-17T08:33:45.738Z,9.30
2023-11-17T08:34:45.701Z,9.80
2023-11-17T08:35:45.686Z,10.40
2023-11-17T08:36:45.654Z,10.30
2023-11-17T08:37:45.624Z,10.70
2023-11-17T08:38:45.592Z,10.40
2023-11-17T08:39:45.582Z,11.10
2023-11-17T08:40:45.551Z,10.00
2023-11-17T08:41:45.509Z,10.50
2023-11-17T08:42:45.488Z,10.00
2023-11-17T08:43:46.150Z,10.00
2023-11-17T08:44:45.433Z,10.10
2023-11-17T08:45:45.491Z,10.70
2023-11-17T08:46:45.462Z,9.50
2023-11-17T08:47:45.388Z,11.20
2023-11-17T08:48:45.314Z,12.20
2023-11-17T08:49:45.298Z,11.60
2023-11-17T08:50:45.254Z,11.70
2023-11-17T08:51:45.236Z,11.00
2023-11-17T08:52:45.207Z,10.80
2023-11-17T08:53:45.178Z,10.60
2023-11-17T08:54:45.146Z,10.30
2023-11-17T08:55:45.650Z,9.90
2023-11-17T08:56:45.088Z,10.80
2023-11-17T08:57:45.070Z,10.80
2023-11-17T08:58:45.096Z,10.20
2023-11-17T08:59:45.131Z,10.60
2023-11-17T09:00:44.982Z,10.00
2023-11-17T09:01:45.280Z,9.80
2023-11-17T09:02:44.948Z,10.50
2023-11-17T09:03:44.918Z,10.00
2023-11-17T09:04:44.909Z,10.00
2023-11-17T09:05:44.845Z,9.60
2023-11-17T09:06:44.813Z,9.70
2023-11-17T09:07:44.813Z,10.30
2023-11-17T09:08:44.762Z,9.20
2023-11-17T09:09:44.731Z,9.80
2023-11-17T09:10:44.824Z,10.10
2023-11-17T09:11:44.674Z,9.70
2023-11-17T09:12:47.946Z,13.30
2023-11-17T09:13:44.667Z,11.70
2023-11-17T09:14:44.585Z,10.50
2023-11-17T09:15:44.756Z,10.70
2023-11-17T09:16:49.690Z,10.30
2023-11-17T09:17:44.580Z,11.20
2023-11-17T09:18:44.482Z,10.30
2023-11-17T09:19:44.490Z,11.00
2023-11-17T09:20:44.425Z,11.70
2023-11-17T09:21:44.398Z,11.50
2023-11-17T09:22:44.365Z,11.90
2023-11-17T09:23:44.344Z,14.40
2023-11-17T09:24:44.312Z,14.50
2023-11-17T09:25:44.387Z,11.90
2023-11-17T09:26:44.280Z,10.50
2023-11-17T09:27:44.227Z,11.60
2023-11-17T09:28:44.215Z,10.50
2023-11-17T09:29:44.230Z,9.80
2023-11-17T09:30:47.551Z,9.50
2023-11-17T09:31:44.261Z,9.90
2023-11-17T09:32:44.103Z,9.00
2023-11-17T09:33:44.084Z,9.40
2023-11-17T09:34:44.069Z,8.70
2023-11-17T09:35:44.033Z,9.40
2023-11-17T09:36:43.981Z,9.70
2023-11-17T09:37:43.992Z,9.10
2023-11-17T09:38:43.972Z,9.30
2023-11-17T09:39:43.900Z,9.40
2023-11-17T09:40:43.903Z,8.90
2023-11-17T09:41:43.854Z,9.50
2023-11-17T09:42:43.815Z,10.00
2023-11-17T09:43:43.874Z,10.30
2023-11-17T09:44:43.759Z,10.00
2023-11-17T09:45:43.740Z,10.40
2023-11-17T09:46:43.744Z,10.70
2023-11-17T09:47:43.959Z,9.80
2023-11-17T09:48:43.716Z,9.40
2023-11-17T09:49:43.924Z,9.90
2023-11-17T09:50:43.590Z,9.40
2023-11-17T09:51:43.560Z,9.80
2023-11-17T09:52:43.555Z,9.70
2023-11-17T09:53:43.502Z,10.80
2023-11-17T09:54:43.473Z,10.60
2023-11-17T09:55:43.600Z,11.00
2023-11-17T09:56:43.420Z,10.90
2023-11-17T09:57:43.480Z,11.10
2023-11-17T09:58:43.434Z,12.90
2023-11-17T09:59:43.336Z,11.50
2023-11-17T10:00:43.315Z,10.90
2023-11-17T10:01:43.354Z,11.20
2023-11-17T10:02:43.362Z,11.20
2023-11-17T10:03:43.505Z,14.80
2023-11-17T10:04:43.238Z,12.80
2023-11-17T10:05:43.213Z,12.70
2023-11-17T10:06:43.140Z,10.50
2023-11-17T10:07:43.169Z,12.60
2023-11-17T10:08:43.081Z,14.00
2023-11-17T10:09:43.058Z,20.20
2023-11-17T10:10:43.038Z,13.30
2023-11-17T10:11:43.005Z,11.90
2023-11-17T10:12:42.976Z,12.70
2023-11-17T10:13:42.988Z,12.50
2023-11-17T10:14:42.945Z,12.70
2023-11-17T10:15:43.307Z,12.40
2023-11-17T10:16:42.933Z,12.60
2023-11-17T10:17:42.842Z,11.90
2023-11-17T10:18:42.830Z,13.50
2023-11-17T10:19:42.947Z,12.80
2023-11-17T10:20:42.767Z,13.00
2023-11-17T10:21:42.722Z,13.10
2023-11-17T10:22:42.757Z,12.40
2023-11-17T10:23:42.666Z,12.70
2023-11-17T10:24:42.640Z,13.00
2023-11-17T10:25:42.626Z,12.60
2023-11-17T10:26:42.578Z,13.90
2023-11-17T10:27:42.577Z,13.40
2023-11-17T10:28:42.582Z,12.90
2023-11-17T10:29:42.493Z,13.10
2023-11-17T10:30:42.724Z,13.40
2023-11-17T10:31:42.552Z,14.30
2023-11-17T10:32:53.897Z,14.00
2023-11-17T10:33:42.476Z,13.10
2023-11-17T10:34:42.425Z,13.40
2023-11-17T10:35:42.442Z,13.10
2023-11-17T10:36:42.302Z,13.40
2023-11-17T10:37:42.268Z,14.10
2023-11-17T10:38:42.246Z,13.40
2023-11-17T10:39:49.342Z,15.00
2023-11-17T10:40:42.222Z,16.70
2023-11-17T10:41:42.152Z,14.80
2023-11-17T10:42:42.140Z,14.10
2023-11-17T10:43:42.129Z,13.50
2023-11-17T10:44:42.076Z,14.00
2023-11-17T10:45:42.060Z,13.30
2023-11-17T10:46:42.385Z,14.50
2023-11-17T10:47:42.009Z,14.10
2023-11-17T10:48:41.963Z,14.80
2023-11-17T10:49:41.943Z,22.00
2023-11-17T10:50:41.906Z,15.50
2023-11-17T10:51:41.982Z,13.80
2023-11-17T10:52:41.911Z,15.50
2023-11-17T10:53:41.848Z,14.90
2023-11-17T10:54:41.797Z,14.60
2023-11-17T10:55:41.813Z,15.40
2023-11-17T10:56:41.769Z,15.10
2023-11-17T10:57:41.714Z,14.60
2023-11-17T10:58:41.719Z,15.50
2023-11-17T10:59:48.830Z,14.90
2023-11-17T11:00:41.631Z,15.20
2023-11-17T11:01:41.670Z,14.80
2023-11-17T11:02:41.676Z,16.00
2023-11-17T11:03:41.613Z,15.80
2023-11-17T11:04:41.586Z,15.90
2023-11-17T11:05:41.495Z,15.60
2023-11-17T11:06:41.488Z,15.10
2023-11-17T11:07:41.583Z,16.20
2023-11-17T11:08:41.412Z,16.60
2023-11-17T11:09:41.436Z,15.40
2023-11-17T11:10:41.373Z,15.20
2023-11-17T11:11:41.322Z,14.40
2023-11-17T11:12:41.301Z,17.00
2023-11-17T11:13:41.380Z,16.40
2023-11-17T11:14:41.243Z,16.90
2023-11-17T11:15:41.216Z,16.90
2023-11-17T11:16:41.272Z,16.50
2023-11-17T11:17:41.177Z,16.10
2023-11-17T11:18:41.134Z,16.20
2023-11-17T11:19:49.391Z,16.40
2023-11-17T11:20:41.195Z,16.10
2023-11-17T11:21:41.056Z,15.00
2023-11-17T11:22:41.070Z,16.30
2023-11-17T11:23:41.121Z,17.30
2023-11-17T11:24:41.972Z,15.90
2023-11-17T11:25:40.978Z,16.00
2023-11-17T11:26:40.917Z,17.00
2023-11-17T11:27:40.886Z,17.10
2023-11-17T11:28:40.892Z,17.10
2023-11-17T11:29:40.859Z,16.90
2023-11-17T11:30:41.863Z,17.70
2023-11-17T11:31:40.861Z,16.70
2023-11-17T11:32:40.795Z,18.30
2023-11-17T11:33:40.726Z,18.00
2023-11-17T11:34:40.885Z,17.50
2023-11-17T11:35:40.665Z,18.60
2023-11-17T11:36:41.070Z,19.90
2023-11-17T11:37:40.633Z,20.60
2023-11-17T11:38:40.637Z,19.20
2023-11-17T11:39:40.676Z,18.80
2023-11-17T11:40:40.578Z,17.30
2023-11-17T11:41:40.499Z,17.80
2023-11-17T11:42:40.819Z,17.60
2023-11-17T11:43:40.514Z,17.80
2023-11-17T11:44:40.419Z,18.70
2023-11-17T11:45:40.390Z,20.10
2023-11-17T11:46:40.486Z,17.70
2023-11-17T11:47:40.383Z,20.30
2023-11-17T11:48:40.320Z,17.80
2023-11-17T11:49:40.297Z,19.20
2023-11-17T11:50:40.288Z,19.20
2023-11-17T11:51:40.219Z,19.40
2023-11-17T11:52:40.264Z,18.30
2023-11-17T11:53:40.171Z,18.90
2023-11-17T11:54:40.141Z,19.70
2023-11-17T11:55:40.260Z,19.80
2023-11-17T11:56:40.124Z,19.70
2023-11-17T11:57:40.053Z,20.50
2023-11-17T11:58:40.074Z,19.40
2023-11-17T11:59:40.002Z,19.60
2023-11-17T12:00:39.975Z,20.80
2023-11-17T12:01:39.976Z,21.30
2023-11-17T12:02:39.967Z,20.50
2023-11-17T12:03:39.980Z,20.50
2023-11-17T12:04:40.031Z,21.60
2023-11-17T12:05:39.838Z,22.30
2023-11-17T12:06:40.210Z,20.50
2023-11-17T12:07:39.799Z,20.60
2023-11-17T12:08:39.769Z,19.50
2023-11-17T12:09:39.724Z,20.60
2023-11-17T12:10:39.759Z,23.90
2023-11-17T12:11:39.790Z,21.70
2023-11-17T12:12:39.654Z,22.00
2023-11-17T12:13:39.715Z,24.40
2023-11-17T12:14:39.593Z,23.80
2023-11-17T12:15:39.559Z,21.80
2023-11-17T12:16:39.567Z,21.30
2023-11-17T12:17:39.541Z,22.10
2023-11-17T12:18:39.485Z,21.50
2023-11-17T12:19:39.454Z,22.10
2023-11-17T12:20:39.421Z,21.50
2023-11-17T12:21:39.391Z,21.40
2023-11-17T12:22:39.414Z,20.30
2023-11-17T12:23:39.338Z,21.80
2023-11-17T12:24:39.323Z,21.50
2023-11-17T12:25:39.327Z,21.20
2023-11-17T12:26:39.260Z,22.80
2023-11-17T12:27:39.349Z,21.50
2023-11-17T12:28:39.269Z,22.10
2023-11-17T12:29:41.216Z,22.90
2023-11-17T12:30:39.169Z,24.50
2023-11-17T12:31:39.238Z,26.40
2023-11-17T12:32:39.207Z,25.80
2023-11-17T12:33:39.078Z,23.60
2023-11-17T12:34:39.061Z,26.50
2023-11-17T12:35:39.028Z,23.10
2023-11-17T12:36:38.980Z,23.70
2023-11-17T12:37:39.017Z,21.90
2023-11-17T12:38:38.928Z,22.10
2023-11-17T12:39:38.904Z,22.20
2023-11-17T12:40:39.017Z,21.60
2023-11-17T12:41:38.845Z,22.20
2023-11-17T12:42:38.820Z,22.30
2023-11-17T12:43:38.828Z,22.50
2023-11-17T12:44:38.762Z,22.30
2023-11-17T12:45:38.742Z,22.90
2023-11-17T12:46:38.805Z,22.50
2023-11-17T12:47:38.923Z,24.00
2023-11-17T12:48:38.698Z,23.50
2023-11-17T12:49:38.644Z,23.70
2023-11-17T12:50:38.594Z,22.50
2023-11-17T12:51:38.585Z,22.60
2023-11-17T12:52:40.282Z,23.10
2023-11-17T12:53:50.298Z,22.40
2023-11-17T12:54:38.493Z,23.10
2023-11-17T12:55:38.524Z,22.40
2023-11-17T12:56:38.444Z,21.90
2023-11-17T12:57:38.492Z,22.30
2023-11-17T12:58:38.435Z,23.00
2023-11-17T12:59:38.387Z,22.50
2023-11-17T13:00:38.327Z,22.00
2023-11-17T13:01:38.386Z,20.60
2023-11-17T13:02:38.345Z,22.90
2023-11-17T13:03:38.325Z,21.90
2023-11-17T13:04:38.324Z,21.30
2023-11-17T13:05:38.194Z,21.10
2023-11-17T13:06:38.166Z,21.30
2023-11-17T13:07:38.141Z,22.40
2023-11-17T13:08:38.099Z,20.60